Mullingar, Ireland
Current Conditions -  °F | °C
As of 10:00 AM on Wednesday 22 Oct 2014 (Local Time) from EIME Reporting Station
Light Rain Light Rain  
Wind Chill: 42°   Ceiling: 6000
Heat Index: 48°   Visibility: 6mi
Dew Point: 45°   Wind: 17mph
Humidity: 87%   Direction: 220°SW
Pressure: 30.21"   Gusts: NA
Location:  53.53°N, 7.34°W
Report Text: EIME 221000Z 22015KT 9999 -RA FEW015 BKN060 OVC090 09/07 Q1023
Loading
Personal Weather Stations






























Interactive Weather Map
Tropical Storm Tracking
New forecast layout! Learn more

10-Day Weather Forecast

Advertisements
Track Severe Weather on mobile